Pagrindinis puslapis
METAR-TAF:

METAR-TAF

Oro uostai :

Aleksandrija, Egiptas

platuma: 31-12N, ilguma: 029-57E, Aukštis: -2 m

Dabartinis oras

Ataskaita buvo paskelbta 31 minutes, ne 19:00 UTC
Vėjas 8 kt iš Šiaurės
Temperatūra 23°C
Drėgmė 57%
Slėgis 1022 hPa
Matomumas 10 km arba daugiau
Išsisklaidę debesys ne aukštis 2000 ft

METAR: HEAX 221900Z 35008KT 9999 SCT020 23/14 Q1022 NOSIG

Laikas: 21:31 (19:31 UTC)

Prognozė

Ataskaita buvo paskelbta 2 valandos ir 31 minutes, ne 17:00 UTC
Prognozė galioja nuo 22 metu 18 UTC su 23 metu 24 UTC
Vėjas 10 kt iš Šiaurės
Matomumas 10 km arba daugiau
Išsisklaidę debesys ne aukštis 2000 ft

TAF: HEAX 221700Z 2218/2324 36010KT 9999 SCT020

Orai ataskaitas ir orų prognozės (METAR, TAF).

turimą stotys yra geltonos ir raudonos taškus žemėlapyje.

Perkelti pele per norėdami pamatyti stoties vardą.

Tada spustelėkite, norėdami matyti oro stebėjimo ir prognozės.

Norėdami pakeisti žemėlapį: spustelėkite ant žalios mygtukų su juodo kryžiaus žemyn,; žalią mygtuką su brūkšneliu, jei norite nutolinti; arba žalių rodyklių gretimoms žemėlapius.


METAR-TAF: